Terminal Aerodrome Forecast
Issued by NWS North Platte, NE

Home | Current Version | Previous Version | Text Only | Print | Product List | Glossary On
Versions: 1 2 3 4 5 6 7 8 9 10 11 12 13 14 15 16 17 18 19
394
FTUS43 KLBF 260520
TAFVTN
TAF
KVTN 260520Z 2606/2706 34014G20KT P6SM OVC011
     FM261200 32014G22KT P6SM OVC012
     FM261400 32017G25KT P6SM OVC014
     FM261700 33017G24KT P6SM BKN020
     FM261900 33015G23KT P6SM SCT035
     FM262300 34011G17KT P6SM SCT200
     FM270200 34006KT P6SM SCT200=

USA.gov is the U.S. government's official web portal to all federal, state and local government web resources and services.